QFA646 YPPH-YSSY
Flight info
| Callsign | QFA646 |
|---|---|
| Flight time | N/A |
| Altitude | 37000 |
| Route | PH H18 MUBID J21 BORLI H205 CULIN Y59 RIVET |
| Aircraft | A21N/M-SDE2E3FGHIRWXY/LB1 |
Departure
| Time | 2026-05-07 04:51 |
|---|---|
| Airport | Perth International Airport (YPPH) |
Arrival
| Time | N/A |
|---|---|
| Airport | Sydney Kingsford Smith International Airport (YSSY) |
| Time | Latitude | Longitude | Altitude | Speed | Heading |
|---|---|---|---|---|---|
| 2026-05-07 04:15 | -31.93470 | 115.96158 | 60 ft | 0 kts | 301° |
| 2026-05-07 04:24 | -31.93470 | 115.96159 | 60 ft | 0 kts | 301° |
| 2026-05-07 04:25 | -31.93471 | 115.96159 | 60 ft | 0 kts | 301° |
| 2026-05-07 04:40 | -31.93473 | 115.96164 | 60 ft | 4 kts | 301° |
| 2026-05-07 04:41 | -31.93487 | 115.96191 | 54 ft | 4 kts | 301° |
| 2026-05-07 04:41 | -31.93499 | 115.96215 | 52 ft | 4 kts | 286° |
| 2026-05-07 04:41 | -31.93497 | 115.96240 | 55 ft | 4 kts | 225° |
| 2026-05-07 04:41 | -31.93480 | 115.96255 | 54 ft | 1 kts | 210° |
| 2026-05-07 04:42 | -31.93477 | 115.96258 | 53 ft | 0 kts | 210° |
| 2026-05-07 04:46 | -31.93485 | 115.96252 | 54 ft | 12 kts | 210° |
| 2026-05-07 04:46 | -31.93586 | 115.96202 | 55 ft | 15 kts | 195° |
| 2026-05-07 04:46 | -31.93688 | 115.96185 | 54 ft | 15 kts | 171° |
| 2026-05-07 04:46 | -31.93783 | 115.96195 | 57 ft | 13 kts | 169° |
| 2026-05-07 04:47 | -31.93868 | 115.96220 | 59 ft | 13 kts | 164° |
| 2026-05-07 04:47 | -31.93935 | 115.96211 | 55 ft | 7 kts | 231° |
| 2026-05-07 04:47 | -31.93994 | 115.96103 | 53 ft | 41 kts | 240° |
| 2026-05-07 04:47 | -31.94066 | 115.95918 | 53 ft | 14 kts | 186° |
| 2026-05-07 04:48 | -31.94086 | 115.95935 | 51 ft | 1 kts | 92° |
| 2026-05-07 04:48 | -31.94084 | 115.95944 | 52 ft | 1 kts | 77° |
| 2026-05-07 04:48 | -31.94083 | 115.95945 | 52 ft | 0 kts | 66° |
| 2026-05-07 04:50 | -31.94068 | 115.95985 | 51 ft | 26 kts | 65° |
| 2026-05-07 04:50 | -31.93876 | 115.96367 | 55 ft | 83 kts | 58° |
| 2026-05-07 04:50 | -31.93461 | 115.97159 | 59 ft | 142 kts | 59° |
| 2026-05-07 04:51 | -31.92899 | 115.98250 | 403 ft | 152 kts | 58° |
| 2026-05-07 04:51 | -31.92431 | 115.99342 | 1071 ft | 154 kts | 66° |
| 2026-05-07 04:51 | -31.92132 | 116.00564 | 1566 ft | 158 kts | 86° |
| 2026-05-07 04:51 | -31.92325 | 116.01919 | 1995 ft | 183 kts | 107° |
| 2026-05-07 04:52 | -31.92917 | 116.03353 | 2350 ft | 211 kts | 118° |
| 2026-05-07 04:52 | -31.93831 | 116.04868 | 2714 ft | 241 kts | 124° |
| 2026-05-07 04:52 | -31.94954 | 116.06408 | 3548 ft | 252 kts | 127° |
| 2026-05-07 04:52 | -31.96132 | 116.07977 | 4458 ft | 258 kts | 127° |
| 2026-05-07 04:53 | -31.97309 | 116.09580 | 5454 ft | 259 kts | 126° |
| 2026-05-07 04:53 | -31.98464 | 116.11209 | 6485 ft | 259 kts | 126° |
| 2026-05-07 04:53 | -31.99605 | 116.12864 | 7414 ft | 263 kts | 126° |
| 2026-05-07 04:53 | -32.00773 | 116.14567 | 8199 ft | 269 kts | 126° |
| 2026-05-07 04:54 | -32.01940 | 116.16286 | 9169 ft | 269 kts | 125° |
| 2026-05-07 04:54 | -32.03097 | 116.18026 | 10116 ft | 272 kts | 124° |
| 2026-05-07 04:54 | -32.04292 | 116.19843 | 10578 ft | 291 kts | 125° |
| 2026-05-07 04:54 | -32.05579 | 116.21809 | 10846 ft | 315 kts | 126° |
| 2026-05-07 04:55 | -32.06975 | 116.23926 | 11141 ft | 337 kts | 126° |
| 2026-05-07 04:55 | -32.08466 | 116.26173 | 11434 ft | 358 kts | 127° |
| 2026-05-07 04:55 | -32.10030 | 116.28521 | 11950 ft | 367 kts | 126° |
| 2026-05-07 04:55 | -32.11602 | 116.30873 | 12598 ft | 373 kts | 126° |
| 2026-05-07 04:56 | -32.13216 | 116.33286 | 13331 ft | 377 kts | 126° |
| 2026-05-07 04:56 | -32.14846 | 116.35728 | 14031 ft | 381 kts | 126° |
| 2026-05-07 04:56 | -32.16493 | 116.38202 | 14632 ft | 385 kts | 126° |
| 2026-05-07 04:56 | -32.18156 | 116.40702 | 15215 ft | 389 kts | 126° |
| 2026-05-07 04:57 | -32.19832 | 116.43225 | 15765 ft | 393 kts | 126° |
| 2026-05-07 04:57 | -32.21436 | 116.45852 | 16355 ft | 395 kts | 122° |
| 2026-05-07 04:57 | -32.22965 | 116.48570 | 16906 ft | 399 kts | 121° |
| 2026-05-07 04:57 | -32.24471 | 116.51340 | 17455 ft | 402 kts | 120° |
| 2026-05-07 04:58 | -32.25964 | 116.54145 | 17986 ft | 405 kts | 120° |
| 2026-05-07 04:58 | -32.27462 | 116.56988 | 18535 ft | 408 kts | 120° |
| 2026-05-07 04:58 | -32.28965 | 116.59852 | 19022 ft | 411 kts | 120° |
| 2026-05-07 04:58 | -32.30457 | 116.62693 | 19472 ft | 414 kts | 120° |
| 2026-05-07 04:59 | -32.31981 | 116.65593 | 19930 ft | 416 kts | 120° |
| 2026-05-07 04:59 | -32.33514 | 116.68507 | 20399 ft | 419 kts | 120° |
| 2026-05-07 04:59 | -32.35061 | 116.71445 | 20873 ft | 421 kts | 120° |
| 2026-05-07 04:59 | -32.36616 | 116.74399 | 21328 ft | 424 kts | 120° |
| 2026-05-07 05:00 | -32.38180 | 116.77371 | 21751 ft | 428 kts | 120° |
| 2026-05-07 05:00 | -32.39762 | 116.80379 | 22203 ft | 430 kts | 120° |
| 2026-05-07 05:00 | -32.41342 | 116.83384 | 22679 ft | 431 kts | 120° |
| 2026-05-07 05:00 | -32.42931 | 116.86410 | 23096 ft | 434 kts | 120° |
| 2026-05-07 05:01 | -32.44528 | 116.89454 | 23511 ft | 437 kts | 120° |
| 2026-05-07 05:01 | -32.46134 | 116.92519 | 23912 ft | 439 kts | 120° |
| 2026-05-07 05:01 | -32.47748 | 116.95602 | 24225 ft | 443 kts | 120° |
| 2026-05-07 05:01 | -32.49379 | 116.98719 | 24580 ft | 446 kts | 120° |
| 2026-05-07 05:02 | -32.51018 | 117.01854 | 24928 ft | 448 kts | 120° |
| 2026-05-07 05:02 | -32.52615 | 117.04968 | 25272 ft | 449 kts | 118° |
| 2026-05-07 05:02 | -32.53989 | 117.08291 | 25637 ft | 450 kts | 111° |
| 2026-05-07 05:02 | -32.55124 | 117.11760 | 25982 ft | 452 kts | 109° |
| 2026-05-07 05:03 | -32.56175 | 117.15268 | 26379 ft | 452 kts | 108° |
| 2026-05-07 05:03 | -32.57173 | 117.18793 | 26866 ft | 450 kts | 108° |
| 2026-05-07 05:03 | -32.58148 | 117.22331 | 27313 ft | 449 kts | 107° |
| 2026-05-07 05:03 | -32.59110 | 117.25851 | 27753 ft | 448 kts | 107° |
| 2026-05-07 05:04 | -32.60067 | 117.29355 | 28175 ft | 447 kts | 108° |
| 2026-05-07 05:04 | -32.61027 | 117.32855 | 28631 ft | 445 kts | 108° |
| 2026-05-07 05:04 | -32.61993 | 117.36360 | 28969 ft | 446 kts | 108° |
| 2026-05-07 05:04 | -32.62957 | 117.39853 | 29336 ft | 447 kts | 108° |
| 2026-05-07 05:05 | -32.63926 | 117.43357 | 29750 ft | 446 kts | 108° |
| 2026-05-07 05:05 | -32.64888 | 117.46839 | 30227 ft | 444 kts | 108° |
| 2026-05-07 05:05 | -32.65847 | 117.50312 | 30649 ft | 442 kts | 108° |
| 2026-05-07 05:05 | -32.66802 | 117.53773 | 30969 ft | 442 kts | 108° |
| 2026-05-07 05:06 | -32.67761 | 117.57253 | 31241 ft | 442 kts | 108° |
| 2026-05-07 05:06 | -32.68704 | 117.60684 | 31472 ft | 444 kts | 108° |
| 2026-05-07 05:06 | -32.69660 | 117.64162 | 31818 ft | 441 kts | 108° |
| 2026-05-07 05:06 | -32.70610 | 117.67625 | 32146 ft | 440 kts | 108° |
| 2026-05-07 05:07 | -32.71552 | 117.71066 | 32534 ft | 438 kts | 109° |
| 2026-05-07 05:07 | -32.72495 | 117.74514 | 32706 ft | 440 kts | 109° |
| 2026-05-07 05:07 | -32.73441 | 117.77972 | 32933 ft | 441 kts | 108° |
| 2026-05-07 05:07 | -32.74388 | 117.81442 | 33161 ft | 441 kts | 109° |
| 2026-05-07 05:08 | -32.75332 | 117.84904 | 33498 ft | 439 kts | 108° |
| 2026-05-07 05:08 | -32.76272 | 117.88356 | 33781 ft | 438 kts | 109° |
| 2026-05-07 05:08 | -32.77206 | 117.91790 | 34100 ft | 437 kts | 109° |
| 2026-05-07 05:08 | -32.78141 | 117.95232 | 34226 ft | 438 kts | 109° |
| 2026-05-07 05:09 | -32.79079 | 117.98690 | 34396 ft | 440 kts | 109° |
| 2026-05-07 05:09 | -32.80017 | 118.02152 | 34575 ft | 440 kts | 109° |
| 2026-05-07 05:09 | -32.80941 | 118.05565 | 34808 ft | 439 kts | 109° |
| 2026-05-07 05:09 | -32.81872 | 118.09011 | 34993 ft | 438 kts | 109° |
| 2026-05-07 05:10 | -32.82803 | 118.12459 | 35151 ft | 438 kts | 109° |
| 2026-05-07 05:10 | -32.83737 | 118.15923 | 35257 ft | 439 kts | 109° |
| 2026-05-07 05:10 | -32.85604 | 118.22856 | 35511 ft | 440 kts | 109° |
| 2026-05-07 05:11 | -32.86535 | 118.26322 | 35686 ft | 440 kts | 109° |
| 2026-05-07 05:11 | -32.87462 | 118.29778 | 35907 ft | 438 kts | 109° |
| 2026-05-07 05:11 | -32.89319 | 118.36711 | 36112 ft | 440 kts | 109° |
| 2026-05-07 05:12 | -32.89381 | 118.36943 | 36125 ft | 440 kts | 109° |
| 2026-05-07 05:12 | -32.89964 | 118.39124 | 36205 ft | 441 kts | 109° |
| 2026-05-07 05:13 | -32.90251 | 118.40196 | 36253 ft | 441 kts | 109° |
| 2026-05-07 05:13 | -32.91179 | 118.43674 | 36419 ft | 440 kts | 109° |
| 2026-05-07 05:13 | -32.92105 | 118.47145 | 36561 ft | 440 kts | 109° |
| 2026-05-07 05:14 | -32.93027 | 118.50608 | 36697 ft | 440 kts | 109° |
| 2026-05-07 05:14 | -32.93954 | 118.54093 | 36772 ft | 441 kts | 109° |
| 2026-05-07 05:14 | -32.95705 | 118.61112 | 36980 ft | 443 kts | 102° |
| 2026-05-07 05:15 | -32.96124 | 118.64748 | 37094 ft | 445 kts | 94° |
| 2026-05-07 05:15 | -32.96045 | 118.68433 | 37202 ft | 447 kts | 84° |
| 2026-05-07 05:15 | -32.94808 | 118.75715 | 37385 ft | 449 kts | 78° |
| 2026-05-07 05:16 | -32.93451 | 118.81690 | 37500 ft | 451 kts | 75° |
| 2026-05-07 05:16 | -32.91641 | 118.88868 | 37501 ft | 451 kts | 75° |
| 2026-05-07 05:17 | -32.89887 | 118.95998 | 37503 ft | 451 kts | 76° |
| 2026-05-07 05:17 | -32.88179 | 119.03171 | 37497 ft | 450 kts | 76° |
| 2026-05-07 05:18 | -32.86489 | 119.10341 | 37500 ft | 450 kts | 76° |
| 2026-05-07 05:18 | -32.84798 | 119.17511 | 37500 ft | 450 kts | 76° |
| 2026-05-07 05:19 | -32.83099 | 119.24677 | 37495 ft | 450 kts | 76° |
| 2026-05-07 05:19 | -32.81396 | 119.31834 | 37498 ft | 450 kts | 76° |
| 2026-05-07 05:20 | -32.79698 | 119.38958 | 37498 ft | 450 kts | 76° |
| 2026-05-07 05:20 | -32.77986 | 119.46117 | 37497 ft | 450 kts | 75° |
| 2026-05-07 05:21 | -32.75405 | 119.56870 | 37494 ft | 450 kts | 76° |
| 2026-05-07 05:22 | -32.73681 | 119.64029 | 37498 ft | 450 kts | 76° |
| 2026-05-07 05:22 | -32.71950 | 119.71191 | 37501 ft | 450 kts | 76° |
| 2026-05-07 05:23 | -32.70230 | 119.78298 | 37499 ft | 450 kts | 76° |
| 2026-05-07 05:23 | -32.68494 | 119.85444 | 37496 ft | 450 kts | 76° |
| 2026-05-07 05:24 | -32.66754 | 119.92583 | 37501 ft | 450 kts | 76° |
| 2026-05-07 05:24 | -32.65011 | 119.99718 | 37496 ft | 450 kts | 75° |
| 2026-05-07 05:25 | -32.63263 | 120.06853 | 37498 ft | 450 kts | 75° |
| 2026-05-07 05:25 | -32.61526 | 120.13936 | 37499 ft | 450 kts | 76° |
| 2026-05-07 05:26 | -32.59773 | 120.21058 | 37499 ft | 450 kts | 76° |
| 2026-05-07 05:26 | -32.58014 | 120.28185 | 37499 ft | 450 kts | 76° |
| 2026-05-07 05:27 | -32.56252 | 120.35297 | 37501 ft | 448 kts | 75° |
| 2026-05-07 05:27 | -32.54493 | 120.42393 | 37498 ft | 448 kts | 75° |
| 2026-05-07 05:28 | -32.52732 | 120.49473 | 37499 ft | 448 kts | 75° |
| 2026-05-07 05:28 | -32.50976 | 120.56513 | 37498 ft | 448 kts | 75° |
| 2026-05-07 05:29 | -32.49205 | 120.63594 | 37498 ft | 448 kts | 75° |
| 2026-05-07 05:29 | -32.47431 | 120.70669 | 37498 ft | 448 kts | 75° |
| 2026-05-07 05:30 | -32.45650 | 120.77754 | 37495 ft | 448 kts | 75° |
| 2026-05-07 05:30 | -32.43879 | 120.84781 | 37498 ft | 448 kts | 75° |
| 2026-05-07 05:31 | -32.42080 | 120.91898 | 37501 ft | 448 kts | 75° |
| 2026-05-07 05:31 | -32.40300 | 120.98923 | 37497 ft | 448 kts | 75° |
| 2026-05-07 05:32 | -32.38501 | 121.06000 | 37495 ft | 449 kts | 75° |
| 2026-05-07 05:32 | -32.36697 | 121.13085 | 37493 ft | 449 kts | 75° |
| 2026-05-07 05:33 | -32.34889 | 121.20163 | 37498 ft | 449 kts | 75° |
| 2026-05-07 05:33 | -32.33088 | 121.27196 | 37498 ft | 449 kts | 75° |
| 2026-05-07 05:34 | -32.31271 | 121.34273 | 37495 ft | 449 kts | 75° |
| 2026-05-07 05:34 | -32.29451 | 121.41347 | 37494 ft | 449 kts | 75° |
| 2026-05-07 05:35 | -32.27628 | 121.48415 | 37490 ft | 449 kts | 75° |
| 2026-05-07 05:35 | -32.25811 | 121.55480 | 37493 ft | 450 kts | 75° |
| 2026-05-07 05:36 | -32.23977 | 121.62547 | 37486 ft | 450 kts | 75° |
| 2026-05-07 05:36 | -32.22134 | 121.69612 | 37501 ft | 450 kts | 75° |
| 2026-05-07 05:37 | -32.20330 | 121.76636 | 37486 ft | 449 kts | 78° |
| 2026-05-07 05:37 | -32.19631 | 121.83902 | 37497 ft | 445 kts | 91° |
| 2026-05-07 05:38 | -32.19743 | 121.91203 | 37506 ft | 445 kts | 94° |
| 2026-05-07 05:38 | -32.20008 | 121.98511 | 37502 ft | 445 kts | 94° |
| 2026-05-07 05:39 | -32.20274 | 122.05826 | 37506 ft | 445 kts | 94° |
| 2026-05-07 05:39 | -32.20512 | 122.13128 | 37507 ft | 445 kts | 94° |
| 2026-05-07 05:40 | -32.20734 | 122.20426 | 37506 ft | 445 kts | 94° |
| 2026-05-07 05:40 | -32.20950 | 122.27726 | 37508 ft | 445 kts | 94° |
| 2026-05-07 05:41 | -32.21162 | 122.35027 | 37511 ft | 445 kts | 94° |
| 2026-05-07 05:41 | -32.21370 | 122.42334 | 37509 ft | 445 kts | 94° |
| 2026-05-07 05:42 | -32.21575 | 122.49646 | 37513 ft | 445 kts | 94° |
| 2026-05-07 05:42 | -32.21775 | 122.56933 | 37504 ft | 444 kts | 94° |
| 2026-05-07 05:43 | -32.21970 | 122.64221 | 37513 ft | 444 kts | 94° |
| 2026-05-07 05:43 | -32.22161 | 122.71460 | 37506 ft | 444 kts | 94° |
| 2026-05-07 05:44 | -32.22348 | 122.78764 | 37504 ft | 444 kts | 94° |
| 2026-05-07 05:44 | -32.22532 | 122.86067 | 37508 ft | 445 kts | 94° |
| 2026-05-07 05:45 | -32.22711 | 122.93361 | 37504 ft | 445 kts | 94° |
| 2026-05-07 05:45 | -32.22886 | 123.00665 | 37503 ft | 445 kts | 94° |
| 2026-05-07 05:46 | -32.23057 | 123.07976 | 37500 ft | 445 kts | 94° |
| 2026-05-07 05:46 | -32.23224 | 123.15274 | 37500 ft | 445 kts | 93° |
| 2026-05-07 05:47 | -32.23385 | 123.22525 | 37502 ft | 444 kts | 94° |
| 2026-05-07 05:47 | -32.23542 | 123.29806 | 37498 ft | 443 kts | 93° |
| 2026-05-07 05:48 | -32.23696 | 123.37086 | 37495 ft | 443 kts | 93° |
| 2026-05-07 05:48 | -32.23846 | 123.44362 | 37498 ft | 443 kts | 93° |
| 2026-05-07 05:49 | -32.23991 | 123.51645 | 37495 ft | 443 kts | 93° |
| 2026-05-07 05:49 | -32.24132 | 123.58925 | 37495 ft | 443 kts | 93° |
| 2026-05-07 05:50 | -32.24269 | 123.66204 | 37497 ft | 443 kts | 93° |
| 2026-05-07 05:50 | -32.24401 | 123.73483 | 37495 ft | 443 kts | 93° |
| 2026-05-07 05:51 | -32.24530 | 123.80756 | 37488 ft | 443 kts | 93° |
| 2026-05-07 05:51 | -32.24654 | 123.87991 | 37491 ft | 443 kts | 93° |
| 2026-05-07 05:52 | -32.24774 | 123.95266 | 37492 ft | 442 kts | 93° |
| 2026-05-07 05:52 | -32.24890 | 124.02534 | 37492 ft | 442 kts | 93° |
| 2026-05-07 05:53 | -32.25001 | 124.09799 | 37493 ft | 442 kts | 93° |
| 2026-05-07 05:53 | -32.25109 | 124.17067 | 37491 ft | 442 kts | 93° |
| 2026-05-07 05:54 | -32.25212 | 124.24339 | 37497 ft | 442 kts | 93° |
| 2026-05-07 05:54 | -32.25311 | 124.31569 | 37493 ft | 442 kts | 93° |
| 2026-05-07 05:55 | -32.25406 | 124.38828 | 37490 ft | 442 kts | 93° |
| 2026-05-07 05:55 | -32.25497 | 124.46090 | 37498 ft | 442 kts | 92° |
| 2026-05-07 05:56 | -32.25583 | 124.53358 | 37503 ft | 442 kts | 92° |
| 2026-05-07 05:56 | -32.25666 | 124.60632 | 37507 ft | 442 kts | 92° |
| 2026-05-07 05:57 | -32.25744 | 124.67871 | 37505 ft | 440 kts | 93° |
| 2026-05-07 05:57 | -32.25818 | 124.75101 | 37515 ft | 440 kts | 92° |
| 2026-05-07 05:58 | -32.25888 | 124.82329 | 37504 ft | 440 kts | 92° |
| 2026-05-07 05:58 | -32.25953 | 124.89559 | 37512 ft | 440 kts | 92° |
| 2026-05-07 05:59 | -32.26015 | 124.96788 | 37510 ft | 440 kts | 92° |
| 2026-05-07 05:59 | -32.26072 | 125.04018 | 37512 ft | 440 kts | 92° |
| 2026-05-07 06:00 | -32.26125 | 125.11211 | 37509 ft | 440 kts | 92° |
| 2026-05-07 06:00 | -32.26175 | 125.18455 | 37505 ft | 440 kts | 92° |
| 2026-05-07 06:01 | -32.26220 | 125.25685 | 37519 ft | 440 kts | 92° |
| 2026-05-07 06:01 | -32.26254 | 125.31698 | 37522 ft | 440 kts | 92° |
| 2026-05-07 06:02 | -32.26291 | 125.38917 | 37508 ft | 439 kts | 92° |
| 2026-05-07 06:02 | -32.26333 | 125.47306 | 37505 ft | 438 kts | 93° |
| 2026-05-07 06:03 | -32.26783 | 125.53250 | 37520 ft | 437 kts | 98° |
| 2026-05-07 06:03 | -32.27554 | 125.60377 | 37515 ft | 437 kts | 99° |
| 2026-05-07 06:04 | -32.28381 | 125.67506 | 37512 ft | 437 kts | 99° |
| 2026-05-07 06:04 | -32.29204 | 125.74626 | 37525 ft | 437 kts | 99° |
| 2026-05-07 06:05 | -32.30014 | 125.81753 | 37529 ft | 437 kts | 99° |
| 2026-05-07 06:05 | -32.30816 | 125.88886 | 37521 ft | 438 kts | 99° |
| 2026-05-07 06:06 | -32.31612 | 125.96011 | 37524 ft | 437 kts | 99° |
| 2026-05-07 06:06 | -32.32404 | 126.03131 | 37523 ft | 437 kts | 99° |
| 2026-05-07 06:07 | -32.33193 | 126.10259 | 37523 ft | 437 kts | 99° |
| 2026-05-07 06:07 | -32.33974 | 126.17351 | 37535 ft | 437 kts | 98° |
| 2026-05-07 06:08 | -32.34755 | 126.24481 | 37529 ft | 437 kts | 99° |
| 2026-05-07 06:08 | -32.35532 | 126.31620 | 37525 ft | 437 kts | 99° |
| 2026-05-07 06:09 | -32.36306 | 126.38762 | 37525 ft | 437 kts | 99° |
| 2026-05-07 06:09 | -32.37073 | 126.45882 | 37525 ft | 436 kts | 98° |
| 2026-05-07 06:10 | -32.37837 | 126.53007 | 37524 ft | 436 kts | 98° |
| 2026-05-07 06:10 | -32.38597 | 126.60137 | 37528 ft | 437 kts | 99° |
| 2026-05-07 06:11 | -32.39353 | 126.67266 | 37529 ft | 437 kts | 98° |
| 2026-05-07 06:11 | -32.40101 | 126.74357 | 37526 ft | 436 kts | 98° |
| 2026-05-07 06:12 | -32.40849 | 126.81493 | 37531 ft | 437 kts | 98° |
| 2026-05-07 06:12 | -32.41594 | 126.88634 | 37530 ft | 437 kts | 98° |
| 2026-05-07 06:13 | -32.42333 | 126.95765 | 37532 ft | 437 kts | 99° |
| 2026-05-07 06:13 | -32.43070 | 127.02911 | 37535 ft | 437 kts | 99° |
| 2026-05-07 06:14 | -32.43804 | 127.10064 | 37530 ft | 437 kts | 99° |
| 2026-05-07 06:14 | -32.44533 | 127.17222 | 37530 ft | 438 kts | 98° |
| 2026-05-07 06:15 | -32.45253 | 127.24322 | 37527 ft | 437 kts | 98° |
| 2026-05-07 06:15 | -32.45976 | 127.31493 | 37529 ft | 438 kts | 98° |
| 2026-05-07 06:16 | -32.46694 | 127.38651 | 37532 ft | 438 kts | 97° |
| 2026-05-07 06:16 | -32.47405 | 127.45798 | 37529 ft | 437 kts | 98° |
| 2026-05-07 06:17 | -32.48115 | 127.52956 | 37536 ft | 438 kts | 98° |
| 2026-05-07 06:17 | -32.48821 | 127.60128 | 37533 ft | 438 kts | 98° |
| 2026-05-07 06:18 | -32.49519 | 127.67257 | 37530 ft | 438 kts | 98° |
| 2026-05-07 06:18 | -32.50218 | 127.74435 | 37534 ft | 439 kts | 98° |
| 2026-05-07 06:19 | -32.50915 | 127.81643 | 37534 ft | 440 kts | 97° |
| 2026-05-07 06:19 | -32.51606 | 127.88836 | 37533 ft | 437 kts | 98° |
| 2026-05-07 06:20 | -32.52290 | 127.95993 | 37539 ft | 437 kts | 97° |
| 2026-05-07 06:20 | -32.52970 | 128.03167 | 37532 ft | 439 kts | 97° |
| 2026-05-07 06:21 | -32.53641 | 128.10317 | 37535 ft | 439 kts | 97° |
| 2026-05-07 06:21 | -32.54312 | 128.17517 | 37536 ft | 439 kts | 97° |
| 2026-05-07 06:22 | -32.54980 | 128.24725 | 37532 ft | 440 kts | 97° |
| 2026-05-07 06:22 | -32.55975 | 128.35564 | 37540 ft | 439 kts | 97° |
| 2026-05-07 06:23 | -32.56633 | 128.42772 | 37538 ft | 439 kts | 97° |
| 2026-05-07 06:23 | -32.57281 | 128.49925 | 37538 ft | 439 kts | 97° |
| 2026-05-07 06:24 | -32.57929 | 128.57132 | 37534 ft | 439 kts | 96° |
| 2026-05-07 06:24 | -32.58574 | 128.64334 | 37534 ft | 439 kts | 96° |
| 2026-05-07 06:25 | -32.59214 | 128.71539 | 37537 ft | 440 kts | 96° |
| 2026-05-07 06:25 | -32.59852 | 128.78768 | 37536 ft | 440 kts | 97° |
| 2026-05-07 06:26 | -32.60484 | 128.85974 | 37542 ft | 439 kts | 96° |
| 2026-05-07 06:26 | -32.61109 | 128.93147 | 37541 ft | 439 kts | 96° |
| 2026-05-07 06:27 | -32.61734 | 129.00370 | 37538 ft | 441 kts | 97° |
| 2026-05-07 06:27 | -32.62356 | 129.07604 | 37543 ft | 441 kts | 97° |
| 2026-05-07 06:28 | -32.62973 | 129.14839 | 37537 ft | 441 kts | 96° |
| 2026-05-07 06:28 | -32.63587 | 129.22085 | 37539 ft | 442 kts | 96° |
| 2026-05-07 06:29 | -32.64196 | 129.29333 | 37535 ft | 441 kts | 96° |
| 2026-05-07 06:29 | -32.64798 | 129.36569 | 37539 ft | 440 kts | 96° |
| 2026-05-07 06:30 | -32.65398 | 129.43767 | 37542 ft | 441 kts | 96° |
| 2026-05-07 06:30 | -32.65997 | 129.51016 | 37535 ft | 441 kts | 96° |
| 2026-05-07 06:31 | -32.66591 | 129.58271 | 37534 ft | 441 kts | 96° |
| 2026-05-07 06:31 | -32.67181 | 129.65532 | 37533 ft | 443 kts | 96° |
| 2026-05-07 06:32 | -32.67768 | 129.72806 | 37532 ft | 442 kts | 96° |
| 2026-05-07 06:32 | -32.68349 | 129.80069 | 37535 ft | 441 kts | 96° |
| 2026-05-07 06:33 | -32.68926 | 129.87326 | 37538 ft | 442 kts | 96° |
| 2026-05-07 06:33 | -32.69501 | 129.94608 | 37534 ft | 443 kts | 96° |
| 2026-05-07 06:34 | -32.70071 | 130.01889 | 37533 ft | 443 kts | 96° |
| 2026-05-07 06:34 | -32.70633 | 130.09120 | 37530 ft | 443 kts | 95° |
| 2026-05-07 06:35 | -32.71196 | 130.16417 | 37533 ft | 443 kts | 95° |
| 2026-05-07 06:35 | -32.71754 | 130.23704 | 37529 ft | 443 kts | 96° |
| 2026-05-07 06:36 | -32.72308 | 130.30989 | 37532 ft | 443 kts | 95° |
| 2026-05-07 06:36 | -32.72858 | 130.38288 | 37537 ft | 444 kts | 95° |
| 2026-05-07 06:37 | -32.73404 | 130.45586 | 37535 ft | 444 kts | 95° |
| 2026-05-07 06:37 | -32.73946 | 130.52889 | 37534 ft | 444 kts | 95° |
| 2026-05-07 06:38 | -32.74485 | 130.60215 | 37531 ft | 445 kts | 95° |
| 2026-05-07 06:38 | -32.75018 | 130.67519 | 37534 ft | 444 kts | 95° |
| 2026-05-07 06:39 | -32.75544 | 130.74780 | 37529 ft | 443 kts | 95° |
| 2026-05-07 06:39 | -32.76069 | 130.82085 | 37533 ft | 444 kts | 95° |
| 2026-05-07 06:40 | -32.76590 | 130.89400 | 37529 ft | 443 kts | 95° |
| 2026-05-07 06:40 | -32.77106 | 130.96700 | 37537 ft | 444 kts | 95° |
| 2026-05-07 06:41 | -32.77620 | 131.04034 | 37533 ft | 445 kts | 95° |
| 2026-05-07 06:41 | -32.78129 | 131.11346 | 37530 ft | 443 kts | 95° |
| 2026-05-07 06:42 | -32.78632 | 131.18651 | 37534 ft | 444 kts | 95° |
| 2026-05-07 06:42 | -32.79130 | 131.25939 | 37528 ft | 445 kts | 95° |
| 2026-05-07 06:43 | -32.79627 | 131.33277 | 37532 ft | 445 kts | 95° |
| 2026-05-07 06:43 | -32.80120 | 131.40620 | 37529 ft | 446 kts | 95° |
| 2026-05-07 06:44 | -32.80610 | 131.47979 | 37524 ft | 446 kts | 95° |
| 2026-05-07 06:44 | -32.81095 | 131.55339 | 37531 ft | 446 kts | 95° |
| 2026-05-07 06:45 | -32.81573 | 131.62653 | 37527 ft | 447 kts | 95° |
| 2026-05-07 06:45 | -32.82052 | 131.70043 | 37523 ft | 448 kts | 94° |
| 2026-05-07 06:46 | -32.82526 | 131.77424 | 37529 ft | 448 kts | 94° |
| 2026-05-07 06:46 | -32.82996 | 131.84818 | 37524 ft | 449 kts | 94° |
| 2026-05-07 06:47 | -32.83462 | 131.92218 | 37522 ft | 448 kts | 94° |
| 2026-05-07 06:47 | -32.83921 | 131.99574 | 37514 ft | 448 kts | 94° |
| 2026-05-07 06:48 | -32.84378 | 132.06971 | 37520 ft | 449 kts | 94° |
| 2026-05-07 06:48 | -32.84832 | 132.14388 | 37520 ft | 449 kts | 94° |
| 2026-05-07 06:49 | -32.85282 | 132.21800 | 37521 ft | 450 kts | 94° |
| 2026-05-07 06:49 | -32.85653 | 132.27976 | 37515 ft | 451 kts | 94° |
| 2026-05-07 06:50 | -32.86171 | 132.36679 | 37520 ft | 450 kts | 94° |
| 2026-05-07 06:50 | -32.86534 | 132.42847 | 37522 ft | 450 kts | 94° |
| 2026-05-07 06:51 | -32.86970 | 132.50283 | 37522 ft | 451 kts | 94° |
| 2026-05-07 06:51 | -32.87400 | 132.57723 | 37522 ft | 450 kts | 94° |
| 2026-05-07 06:52 | -32.87827 | 132.65167 | 37519 ft | 452 kts | 94° |
| 2026-05-07 06:52 | -32.88248 | 132.72587 | 37522 ft | 453 kts | 94° |
| 2026-05-07 06:53 | -32.88666 | 132.80048 | 37516 ft | 451 kts | 94° |
| 2026-05-07 06:53 | -32.89080 | 132.87495 | 37514 ft | 450 kts | 94° |
| 2026-05-07 06:54 | -32.89488 | 132.94934 | 37518 ft | 451 kts | 94° |
| 2026-05-07 06:54 | -32.89892 | 133.02377 | 37519 ft | 451 kts | 94° |
| 2026-05-07 06:55 | -32.90293 | 133.09835 | 37517 ft | 452 kts | 94° |
| 2026-05-07 06:55 | -32.90690 | 133.17314 | 37513 ft | 452 kts | 94° |
| 2026-05-07 06:56 | -32.91082 | 133.24774 | 37516 ft | 451 kts | 94° |
| 2026-05-07 06:56 | -32.91467 | 133.32193 | 37509 ft | 452 kts | 93° |
| 2026-05-07 06:57 | -32.91851 | 133.39666 | 37512 ft | 452 kts | 93° |
| 2026-05-07 06:57 | -32.92230 | 133.47136 | 37510 ft | 453 kts | 93° |
| 2026-05-07 06:58 | -32.92606 | 133.54641 | 37509 ft | 454 kts | 93° |
| 2026-05-07 06:58 | -32.92977 | 133.62135 | 37505 ft | 452 kts | 93° |
| 2026-05-07 06:59 | -32.93343 | 133.69619 | 37504 ft | 454 kts | 93° |
| 2026-05-07 06:59 | -32.93706 | 133.77127 | 37508 ft | 454 kts | 93° |
| 2026-05-07 07:00 | -32.94064 | 133.84638 | 37509 ft | 454 kts | 93° |
| 2026-05-07 07:00 | -32.94420 | 133.92179 | 37503 ft | 457 kts | 93° |
| 2026-05-07 07:01 | -32.94769 | 133.99680 | 37510 ft | 455 kts | 93° |
| 2026-05-07 07:01 | -32.95113 | 134.07184 | 37506 ft | 454 kts | 93° |
| 2026-05-07 07:02 | -32.95454 | 134.14715 | 37504 ft | 455 kts | 93° |
| 2026-05-07 07:02 | -32.95791 | 134.22251 | 37510 ft | 455 kts | 93° |
| 2026-05-07 07:03 | -32.96124 | 134.29802 | 37508 ft | 458 kts | 93° |
| 2026-05-07 07:03 | -32.96453 | 134.37362 | 37500 ft | 456 kts | 93° |
| 2026-05-07 07:04 | -32.96775 | 134.44857 | 37493 ft | 455 kts | 93° |
| 2026-05-07 07:04 | -32.97094 | 134.52411 | 37493 ft | 457 kts | 93° |
| 2026-05-07 07:05 | -32.97409 | 134.59963 | 37498 ft | 457 kts | 92° |
| 2026-05-07 07:05 | -32.97720 | 134.67527 | 37497 ft | 457 kts | 92° |
| 2026-05-07 07:06 | -32.98024 | 134.75053 | 37486 ft | 457 kts | 92° |
| 2026-05-07 07:06 | -32.98325 | 134.82606 | 37487 ft | 456 kts | 92° |
| 2026-05-07 07:07 | -32.98622 | 134.90156 | 37489 ft | 456 kts | 92° |
| 2026-05-07 07:07 | -32.98914 | 134.97704 | 37484 ft | 456 kts | 92° |
| 2026-05-07 07:08 | -32.99201 | 135.05252 | 37477 ft | 456 kts | 92° |
| 2026-05-07 07:08 | -32.99484 | 135.12799 | 37481 ft | 456 kts | 92° |
| 2026-05-07 07:09 | -32.99756 | 135.20344 | 37483 ft | 456 kts | 92° |
| 2026-05-07 07:09 | -33.00020 | 135.27888 | 37482 ft | 456 kts | 92° |
| 2026-05-07 07:10 | -33.00279 | 135.35439 | 37472 ft | 456 kts | 92° |
| 2026-05-07 07:10 | -33.00534 | 135.42969 | 37472 ft | 458 kts | 92° |
| 2026-05-07 07:11 | -33.00786 | 135.50541 | 37486 ft | 458 kts | 92° |
| 2026-05-07 07:11 | -33.01034 | 135.58130 | 37481 ft | 458 kts | 92° |
| 2026-05-07 07:12 | -33.01277 | 135.65716 | 37462 ft | 457 kts | 92° |
| 2026-05-07 07:12 | -33.01810 | 135.73257 | 37466 ft | 457 kts | 97° |
| 2026-05-07 07:13 | -33.02648 | 135.80762 | 37462 ft | 457 kts | 98° |
| 2026-05-07 07:13 | -33.03546 | 135.88276 | 37471 ft | 458 kts | 98° |
| 2026-05-07 07:14 | -33.04427 | 135.95795 | 37476 ft | 459 kts | 98° |
| 2026-05-07 07:14 | -33.05284 | 136.03285 | 37480 ft | 458 kts | 98° |
| 2026-05-07 07:15 | -33.06135 | 136.10822 | 37466 ft | 459 kts | 97° |
| 2026-05-07 07:15 | -33.06978 | 136.18342 | 37465 ft | 458 kts | 97° |
| 2026-05-07 07:16 | -33.07823 | 136.25902 | 37469 ft | 458 kts | 97° |
| 2026-05-07 07:16 | -33.08660 | 136.33435 | 37475 ft | 459 kts | 97° |
| 2026-05-07 07:17 | -33.09488 | 136.40929 | 37471 ft | 458 kts | 97° |
| 2026-05-07 07:17 | -33.10318 | 136.48479 | 37475 ft | 459 kts | 97° |
| 2026-05-07 07:18 | -33.11142 | 136.56026 | 37475 ft | 459 kts | 97° |
| 2026-05-07 07:18 | -33.11963 | 136.63580 | 37462 ft | 459 kts | 97° |
| 2026-05-07 07:19 | -33.12780 | 136.71141 | 37463 ft | 460 kts | 97° |
| 2026-05-07 07:19 | -33.13591 | 136.78694 | 37465 ft | 459 kts | 97° |
| 2026-05-07 07:20 | -33.14394 | 136.86219 | 37470 ft | 460 kts | 97° |
| 2026-05-07 07:20 | -33.15196 | 136.93778 | 37471 ft | 460 kts | 97° |
| 2026-05-07 07:21 | -33.15996 | 137.01352 | 37465 ft | 459 kts | 97° |
| 2026-05-07 07:21 | -33.16793 | 137.08953 | 37468 ft | 462 kts | 97° |
| 2026-05-07 07:22 | -33.17586 | 137.16555 | 37464 ft | 461 kts | 97° |
| 2026-05-07 07:22 | -33.18367 | 137.24093 | 37457 ft | 460 kts | 97° |
| 2026-05-07 07:23 | -33.19150 | 137.31696 | 37455 ft | 461 kts | 97° |
| 2026-05-07 07:23 | -33.19928 | 137.39298 | 37458 ft | 461 kts | 97° |
| 2026-05-07 07:24 | -33.20703 | 137.46914 | 37457 ft | 461 kts | 97° |
| 2026-05-07 07:24 | -33.21472 | 137.54508 | 37460 ft | 462 kts | 97° |
| 2026-05-07 07:25 | -33.22617 | 137.65918 | 37457 ft | 461 kts | 97° |
| 2026-05-07 07:26 | -33.23370 | 137.73482 | 37449 ft | 461 kts | 97° |
| 2026-05-07 07:26 | -33.24125 | 137.81112 | 37460 ft | 462 kts | 97° |
| 2026-05-07 07:27 | -33.24873 | 137.88718 | 37451 ft | 460 kts | 97° |
| 2026-05-07 07:27 | -33.25613 | 137.96292 | 37450 ft | 459 kts | 97° |
| 2026-05-07 07:28 | -33.26348 | 138.03869 | 37450 ft | 459 kts | 97° |
| 2026-05-07 07:28 | -33.27078 | 138.11436 | 37446 ft | 458 kts | 97° |
| 2026-05-07 07:29 | -33.27805 | 138.19018 | 37446 ft | 458 kts | 97° |
| 2026-05-07 07:29 | -33.28526 | 138.26595 | 37443 ft | 459 kts | 97° |
| 2026-05-07 07:30 | -33.29244 | 138.34186 | 37445 ft | 461 kts | 96° |
| 2026-05-07 07:30 | -33.29956 | 138.41758 | 37447 ft | 461 kts | 96° |
| 2026-05-07 07:31 | -33.30667 | 138.49382 | 37450 ft | 461 kts | 97° |
| 2026-05-07 07:31 | -33.31373 | 138.56998 | 37445 ft | 461 kts | 97° |
| 2026-05-07 07:32 | -33.32075 | 138.64614 | 37445 ft | 461 kts | 96° |
| 2026-05-07 07:32 | -33.32770 | 138.72219 | 37444 ft | 460 kts | 97° |
| 2026-05-07 07:33 | -33.33462 | 138.79830 | 37438 ft | 460 kts | 97° |
| 2026-05-07 07:33 | -33.34148 | 138.87437 | 37448 ft | 460 kts | 97° |
| 2026-05-07 07:34 | -33.34830 | 138.95039 | 37438 ft | 460 kts | 96° |
| 2026-05-07 07:34 | -33.35509 | 139.02674 | 37433 ft | 460 kts | 96° |
| 2026-05-07 07:35 | -33.36181 | 139.10285 | 37435 ft | 460 kts | 97° |
| 2026-05-07 07:35 | -33.36737 | 139.16620 | 37430 ft | 460 kts | 97° |
| 2026-05-07 07:36 | -33.37509 | 139.25473 | 37432 ft | 460 kts | 97° |
| 2026-05-07 07:36 | -33.38167 | 139.33081 | 37427 ft | 460 kts | 96° |
| 2026-05-07 07:37 | -33.38830 | 139.40707 | 37427 ft | 460 kts | 98° |
| 2026-05-07 07:37 | -33.39554 | 139.47023 | 37425 ft | 460 kts | 101° |
| 2026-05-07 07:38 | -33.40799 | 139.54517 | 37428 ft | 459 kts | 103° |
| 2026-05-07 07:38 | -33.42300 | 139.63233 | 37424 ft | 461 kts | 102° |